sensor_id;sensor_type;location;lat;lon;timestamp;P1;durP1;ratioP1;P2;durP2;ratioP2
13660;SDS011;6903;49.480;11.102;2023-05-07T00:01:13;2.93;;;2.73;;
13660;SDS011;6903;49.480;11.102;2023-05-07T00:03:38;3.10;;;2.70;;
13660;SDS011;6903;49.480;11.102;2023-05-07T00:06:04;2.90;;;2.70;;
13660;SDS011;6903;49.480;11.102;2023-05-07T00:08:29;2.97;;;2.73;;
13660;SDS011;6903;49.480;11.102;2023-05-07T00:10:54;3.00;;;2.70;;
13660;SDS011;6903;49.480;11.102;2023-05-07T00:13:20;4.03;;;3.13;;
13660;SDS011;6903;49.480;11.102;2023-05-07T00:15:45;2.67;;;2.47;;
13660;SDS011;6903;49.480;11.102;2023-05-07T00:18:10;2.53;;;2.30;;
13660;SDS011;6903;49.480;11.102;2023-05-07T00:20:36;2.63;;;2.43;;
13660;SDS011;6903;49.480;11.102;2023-05-07T00:23:01;2.57;;;2.33;;
13660;SDS011;6903;49.480;11.102;2023-05-07T00:25:26;2.93;;;2.40;;
13660;SDS011;6903;49.480;11.102;2023-05-07T00:27:52;2.57;;;2.37;;
13660;SDS011;6903;49.480;11.102;2023-05-07T00:30:17;3.30;;;2.50;;
13660;SDS011;6903;49.480;11.102;2023-05-07T00:32:42;3.13;;;2.83;;
13660;SDS011;6903;49.480;11.102;2023-05-07T00:35:10;2.77;;;2.50;;
13660;SDS011;6903;49.480;11.102;2023-05-07T00:37:35;2.43;;;2.20;;
13660;SDS011;6903;49.480;11.102;2023-05-07T00:40:01;3.00;;;2.53;;
13660;SDS011;6903;49.480;11.102;2023-05-07T00:42:29;3.73;;;2.67;;
13660;SDS011;6903;49.480;11.102;2023-05-07T00:44:54;2.70;;;2.40;;
13660;SDS011;6903;49.480;11.102;2023-05-07T00:47:20;3.30;;;2.47;;
13660;SDS011;6903;49.480;11.102;2023-05-07T00:49:45;3.70;;;2.77;;
13660;SDS011;6903;49.480;11.102;2023-05-07T00:52:11;4.33;;;2.60;;
13660;SDS011;6903;49.480;11.102;2023-05-07T00:54:40;4.10;;;2.87;;
13660;SDS011;6903;49.480;11.102;2023-05-07T00:57:06;2.77;;;2.50;;
13660;SDS011;6903;49.480;11.102;2023-05-07T00:59:32;3.53;;;2.70;;
13660;SDS011;6903;49.480;11.102;2023-05-07T01:01:58;4.10;;;2.90;;
13660;SDS011;6903;49.480;11.102;2023-05-07T01:04:24;4.17;;;2.87;;
13660;SDS011;6903;49.480;11.102;2023-05-07T01:06:49;2.63;;;2.40;;
13660;SDS011;6903;49.480;11.102;2023-05-07T01:09:16;3.43;;;3.13;;
13660;SDS011;6903;49.480;11.102;2023-05-07T01:11:42;3.33;;;2.97;;
13660;SDS011;6903;49.480;11.102;2023-05-07T01:14:08;3.30;;;3.00;;
13660;SDS011;6903;49.480;11.102;2023-05-07T01:16:34;3.03;;;2.73;;
13660;SDS011;6903;49.480;11.102;2023-05-07T01:19:00;2.80;;;2.50;;
13660;SDS011;6903;49.480;11.102;2023-05-07T01:21:26;3.20;;;2.90;;
13660;SDS011;6903;49.480;11.102;2023-05-07T01:23:51;3.83;;;3.00;;
13660;SDS011;6903;49.480;11.102;2023-05-07T01:26:18;3.57;;;2.80;;
13660;SDS011;6903;49.480;11.102;2023-05-07T01:28:44;3.70;;;3.17;;
13660;SDS011;6903;49.480;11.102;2023-05-07T01:31:10;3.10;;;2.80;;
13660;SDS011;6903;49.480;11.102;2023-05-07T01:33:38;3.20;;;2.90;;
13660;SDS011;6903;49.480;11.102;2023-05-07T01:36:06;4.20;;;3.50;;
13660;SDS011;6903;49.480;11.102;2023-05-07T01:38:33;3.37;;;3.07;;
13660;SDS011;6903;49.480;11.102;2023-05-07T01:40:59;3.60;;;3.30;;
13660;SDS011;6903;49.480;11.102;2023-05-07T01:43:25;3.73;;;3.37;;
13660;SDS011;6903;49.480;11.102;2023-05-07T01:45:50;3.40;;;3.10;;
13660;SDS011;6903;49.480;11.102;2023-05-07T01:48:17;3.70;;;3.40;;
13660;SDS011;6903;49.480;11.102;2023-05-07T01:50:43;5.07;;;3.57;;
13660;SDS011;6903;49.480;11.102;2023-05-07T01:53:09;5.27;;;3.50;;
13660;SDS011;6903;49.480;11.102;2023-05-07T01:55:34;5.20;;;4.10;;
13660;SDS011;6903;49.480;11.102;2023-05-07T01:58:01;3.80;;;3.50;;
13660;SDS011;6903;49.480;11.102;2023-05-07T02:00:27;3.90;;;3.50;;
13660;SDS011;6903;49.480;11.102;2023-05-07T02:02:52;4.80;;;3.87;;
13660;SDS011;6903;49.480;11.102;2023-05-07T02:05:18;4.10;;;3.70;;
13660;SDS011;6903;49.480;11.102;2023-05-07T02:07:43;4.67;;;4.20;;
13660;SDS011;6903;49.480;11.102;2023-05-07T02:10:09;4.30;;;3.90;;
13660;SDS011;6903;49.480;11.102;2023-05-07T02:12:34;4.10;;;3.70;;
13660;SDS011;6903;49.480;11.102;2023-05-07T02:15:00;4.33;;;3.60;;
13660;SDS011;6903;49.480;11.102;2023-05-07T02:17:25;3.90;;;3.50;;
13660;SDS011;6903;49.480;11.102;2023-05-07T02:19:50;4.53;;;4.00;;
13660;SDS011;6903;49.480;11.102;2023-05-07T02:22:16;4.60;;;4.17;;
13660;SDS011;6903;49.480;11.102;2023-05-07T02:24:41;4.53;;;4.13;;
13660;SDS011;6903;49.480;11.102;2023-05-07T02:27:06;4.83;;;4.43;;
13660;SDS011;6903;49.480;11.102;2023-05-07T02:29:32;5.50;;;4.40;;
13660;SDS011;6903;49.480;11.102;2023-05-07T02:31:57;4.87;;;4.00;;
13660;SDS011;6903;49.480;11.102;2023-05-07T02:34:22;6.67;;;4.43;;
13660;SDS011;6903;49.480;11.102;2023-05-07T02:36:48;4.53;;;4.13;;
13660;SDS011;6903;49.480;11.102;2023-05-07T02:39:13;5.77;;;4.87;;
13660;SDS011;6903;49.480;11.102;2023-05-07T02:41:39;4.97;;;4.47;;
13660;SDS011;6903;49.480;11.102;2023-05-07T02:44:04;6.03;;;5.03;;
13660;SDS011;6903;49.480;11.102;2023-05-07T02:46:30;5.30;;;4.80;;
13660;SDS011;6903;49.480;11.102;2023-05-07T02:48:55;7.13;;;5.27;;
13660;SDS011;6903;49.480;11.102;2023-05-07T02:51:21;6.10;;;5.50;;
13660;SDS011;6903;49.480;11.102;2023-05-07T02:53:47;6.00;;;5.40;;
13660;SDS011;6903;49.480;11.102;2023-05-07T02:56:12;6.13;;;5.50;;
13660;SDS011;6903;49.480;11.102;2023-05-07T02:58:37;6.10;;;5.50;;
13660;SDS011;6903;49.480;11.102;2023-05-07T03:01:04;7.00;;;5.90;;
13660;SDS011;6903;49.480;11.102;2023-05-07T03:03:30;6.17;;;5.67;;
13660;SDS011;6903;49.480;11.102;2023-05-07T03:05:55;5.97;;;5.30;;
13660;SDS011;6903;49.480;11.102;2023-05-07T03:08:20;6.53;;;5.80;;
13660;SDS011;6903;49.480;11.102;2023-05-07T03:10:46;6.70;;;6.00;;
13660;SDS011;6903;49.480;11.102;2023-05-07T03:13:11;7.87;;;6.30;;
13660;SDS011;6903;49.480;11.102;2023-05-07T03:15:37;7.27;;;6.50;;
13660;SDS011;6903;49.480;11.102;2023-05-07T03:18:02;7.50;;;6.67;;
13660;SDS011;6903;49.480;11.102;2023-05-07T03:20:27;7.90;;;6.27;;
13660;SDS011;6903;49.480;11.102;2023-05-07T03:22:53;7.07;;;6.40;;
13660;SDS011;6903;49.480;11.102;2023-05-07T03:25:18;7.20;;;6.50;;
13660;SDS011;6903;49.480;11.102;2023-05-07T03:27:43;7.00;;;6.30;;
13660;SDS011;6903;49.480;11.102;2023-05-07T03:30:09;7.33;;;6.43;;
13660;SDS011;6903;49.480;11.102;2023-05-07T03:32:35;8.03;;;6.47;;
13660;SDS011;6903;49.480;11.102;2023-05-07T03:35:01;7.10;;;6.43;;
13660;SDS011;6903;49.480;11.102;2023-05-07T03:37:26;7.43;;;6.53;;
13660;SDS011;6903;49.480;11.102;2023-05-07T03:39:51;8.70;;;6.60;;
13660;SDS011;6903;49.480;11.102;2023-05-07T03:42:17;7.10;;;6.40;;
13660;SDS011;6903;49.480;11.102;2023-05-07T03:44:42;7.57;;;6.43;;
13660;SDS011;6903;49.480;11.102;2023-05-07T03:47:07;7.70;;;6.90;;
13660;SDS011;6903;49.480;11.102;2023-05-07T03:49:33;8.37;;;7.20;;
13660;SDS011;6903;49.480;11.102;2023-05-07T03:51:58;8.07;;;7.27;;
13660;SDS011;6903;49.480;11.102;2023-05-07T03:54:23;8.33;;;7.53;;
13660;SDS011;6903;49.480;11.102;2023-05-07T03:56:49;8.70;;;7.20;;
13660;SDS011;6903;49.480;11.102;2023-05-07T03:59:14;8.47;;;7.57;;
13660;SDS011;6903;49.480;11.102;2023-05-07T04:01:39;8.53;;;7.10;;
13660;SDS011;6903;49.480;11.102;2023-05-07T04:04:05;8.40;;;7.60;;
13660;SDS011;6903;49.480;11.102;2023-05-07T04:06:30;8.60;;;7.00;;
13660;SDS011;6903;49.480;11.102;2023-05-07T04:08:56;9.00;;;7.77;;
13660;SDS011;6903;49.480;11.102;2023-05-07T04:11:21;8.27;;;7.47;;
13660;SDS011;6903;49.480;11.102;2023-05-07T04:13:46;8.50;;;7.70;;
13660;SDS011;6903;49.480;11.102;2023-05-07T04:16:12;8.70;;;7.50;;
13660;SDS011;6903;49.480;11.102;2023-05-07T04:18:37;8.63;;;7.40;;
13660;SDS011;6903;49.480;11.102;2023-05-07T04:21:03;8.13;;;7.30;;
13660;SDS011;6903;49.480;11.102;2023-05-07T04:23:28;7.53;;;6.83;;
13660;SDS011;6903;49.480;11.102;2023-05-07T04:25:53;7.80;;;7.10;;
13660;SDS011;6903;49.480;11.102;2023-05-07T04:28:19;8.93;;;7.13;;
13660;SDS011;6903;49.480;11.102;2023-05-07T04:30:45;9.27;;;7.30;;
13660;SDS011;6903;49.480;11.102;2023-05-07T04:33:10;7.80;;;7.07;;
13660;SDS011;6903;49.480;11.102;2023-05-07T04:35:36;8.93;;;7.63;;
13660;SDS011;6903;49.480;11.102;2023-05-07T04:38:02;8.03;;;7.23;;
13660;SDS011;6903;49.480;11.102;2023-05-07T04:40:27;8.37;;;7.57;;
13660;SDS011;6903;49.480;11.102;2023-05-07T04:42:52;8.87;;;7.17;;
13660;SDS011;6903;49.480;11.102;2023-05-07T04:45:18;8.63;;;7.67;;
13660;SDS011;6903;49.480;11.102;2023-05-07T04:47:43;7.90;;;6.53;;
13660;SDS011;6903;49.480;11.102;2023-05-07T04:50:09;7.80;;;7.00;;
13660;SDS011;6903;49.480;11.102;2023-05-07T04:52:35;9.17;;;7.20;;
13660;SDS011;6903;49.480;11.102;2023-05-07T04:55:00;7.60;;;6.90;;
13660;SDS011;6903;49.480;11.102;2023-05-07T04:57:26;7.50;;;6.80;;
13660;SDS011;6903;49.480;11.102;2023-05-07T04:59:52;7.27;;;6.67;;
13660;SDS011;6903;49.480;11.102;2023-05-07T05:02:18;7.37;;;6.63;;
13660;SDS011;6903;49.480;11.102;2023-05-07T05:04:43;7.70;;;6.87;;
13660;SDS011;6903;49.480;11.102;2023-05-07T05:07:09;7.60;;;6.70;;
13660;SDS011;6903;49.480;11.102;2023-05-07T05:09:34;7.47;;;6.70;;
13660;SDS011;6903;49.480;11.102;2023-05-07T05:11:59;8.67;;;6.77;;
13660;SDS011;6903;49.480;11.102;2023-05-07T05:14:25;8.23;;;6.93;;
13660;SDS011;6903;49.480;11.102;2023-05-07T05:16:50;8.37;;;6.70;;
13660;SDS011;6903;49.480;11.102;2023-05-07T05:19:15;8.10;;;7.23;;
13660;SDS011;6903;49.480;11.102;2023-05-07T05:21:41;8.07;;;6.73;;
13660;SDS011;6903;49.480;11.102;2023-05-07T05:24:06;7.00;;;6.30;;
13660;SDS011;6903;49.480;11.102;2023-05-07T05:26:32;8.13;;;6.77;;
13660;SDS011;6903;49.480;11.102;2023-05-07T05:28:57;7.27;;;6.57;;
13660;SDS011;6903;49.480;11.102;2023-05-07T05:31:22;7.13;;;6.43;;
13660;SDS011;6903;49.480;11.102;2023-05-07T05:33:48;7.10;;;6.40;;
13660;SDS011;6903;49.480;11.102;2023-05-07T05:36:13;6.90;;;6.20;;
13660;SDS011;6903;49.480;11.102;2023-05-07T05:38:39;7.13;;;6.53;;
13660;SDS011;6903;49.480;11.102;2023-05-07T05:41:04;7.05;;;6.30;;
13660;SDS011;6903;49.480;11.102;2023-05-07T05:43:30;7.57;;;6.60;;
13660;SDS011;6903;49.480;11.102;2023-05-07T05:45:56;7.25;;;6.55;;
13660;SDS011;6903;49.480;11.102;2023-05-07T05:48:21;7.20;;;6.50;;
13660;SDS011;6903;49.480;11.102;2023-05-07T05:50:47;8.40;;;7.60;;
13660;SDS011;6903;49.480;11.102;2023-05-07T05:53:13;8.77;;;7.00;;
13660;SDS011;6903;49.480;11.102;2023-05-07T05:55:38;7.87;;;7.13;;
13660;SDS011;6903;49.480;11.102;2023-05-07T05:58:03;7.60;;;6.90;;
13660;SDS011;6903;49.480;11.102;2023-05-07T06:00:29;8.80;;;6.93;;
13660;SDS011;6903;49.480;11.102;2023-05-07T06:02:54;10.53;;;7.50;;
13660;SDS011;6903;49.480;11.102;2023-05-07T06:05:19;7.33;;;6.63;;
13660;SDS011;6903;49.480;11.102;2023-05-07T06:07:45;7.50;;;6.80;;
13660;SDS011;6903;49.480;11.102;2023-05-07T06:10:10;7.70;;;6.90;;
13660;SDS011;6903;49.480;11.102;2023-05-07T06:12:35;8.97;;;7.03;;
13660;SDS011;6903;49.480;11.102;2023-05-07T06:15:01;8.43;;;7.47;;
13660;SDS011;6903;49.480;11.102;2023-05-07T06:17:26;9.27;;;7.37;;
13660;SDS011;6903;49.480;11.102;2023-05-07T06:19:52;7.73;;;6.93;;
13660;SDS011;6903;49.480;11.102;2023-05-07T06:22:17;7.83;;;7.03;;
13660;SDS011;6903;49.480;11.102;2023-05-07T06:24:42;7.37;;;6.67;;
13660;SDS011;6903;49.480;11.102;2023-05-07T06:27:08;7.90;;;7.10;;
13660;SDS011;6903;49.480;11.102;2023-05-07T06:29:33;8.17;;;7.43;;
13660;SDS011;6903;49.480;11.102;2023-05-07T06:32:08;7.97;;;6.87;;
13660;SDS011;6903;49.480;11.102;2023-05-07T06:34:35;8.33;;;7.13;;
13660;SDS011;6903;49.480;11.102;2023-05-07T06:37:00;8.90;;;7.30;;
13660;SDS011;6903;49.480;11.102;2023-05-07T06:39:26;7.97;;;7.07;;
13660;SDS011;6903;49.480;11.102;2023-05-07T06:41:51;7.40;;;6.70;;
13660;SDS011;6903;49.480;11.102;2023-05-07T06:44:16;8.23;;;7.38;;
13660;SDS011;6903;49.480;11.102;2023-05-07T06:46:42;9.32;;;6.80;;
13660;SDS011;6903;49.480;11.102;2023-05-07T06:49:07;9.03;;;7.00;;
13660;SDS011;6903;49.480;11.102;2023-05-07T06:51:33;8.50;;;6.75;;
13660;SDS011;6903;49.480;11.102;2023-05-07T06:53:58;7.93;;;7.10;;
13660;SDS011;6903;49.480;11.102;2023-05-07T06:56:24;7.25;;;6.60;;
13660;SDS011;6903;49.480;11.102;2023-05-07T06:58:50;7.43;;;6.30;;
13660;SDS011;6903;49.480;11.102;2023-05-07T07:01:15;7.88;;;6.90;;
13660;SDS011;6903;49.480;11.102;2023-05-07T07:03:40;8.02;;;6.70;;
13660;SDS011;6903;49.480;11.102;2023-05-07T07:06:05;7.15;;;6.30;;
13660;SDS011;6903;49.480;11.102;2023-05-07T07:08:31;7.25;;;6.55;;
13660;SDS011;6903;49.480;11.102;2023-05-07T07:10:56;7.63;;;6.30;;
13660;SDS011;6903;49.480;11.102;2023-05-07T07:13:22;7.00;;;6.30;;
13660;SDS011;6903;49.480;11.102;2023-05-07T07:15:48;7.15;;;6.30;;
13660;SDS011;6903;49.480;11.102;2023-05-07T07:18:13;6.85;;;6.15;;
13660;SDS011;6903;49.480;11.102;2023-05-07T07:20:38;7.00;;;6.30;;
13660;SDS011;6903;49.480;11.102;2023-05-07T07:23:04;7.05;;;6.00;;
13660;SDS011;6903;49.480;11.102;2023-05-07T07:25:29;6.40;;;5.68;;
13660;SDS011;6903;49.480;11.102;2023-05-07T07:27:54;5.90;;;5.40;;
13660;SDS011;6903;49.480;11.102;2023-05-07T07:30:20;6.80;;;6.10;;
13660;SDS011;6903;49.480;11.102;2023-05-07T07:32:45;6.05;;;5.55;;
13660;SDS011;6903;49.480;11.102;2023-05-07T07:35:10;6.68;;;5.97;;
13660;SDS011;6903;49.480;11.102;2023-05-07T07:37:36;6.38;;;5.78;;
13660;SDS011;6903;49.480;11.102;2023-05-07T07:40:01;8.98;;;5.85;;
13660;SDS011;6903;49.480;11.102;2023-05-07T07:42:26;6.43;;;5.82;;
13660;SDS011;6903;49.480;11.102;2023-05-07T07:44:52;6.50;;;5.80;;
13660;SDS011;6903;49.480;11.102;2023-05-07T07:47:17;6.30;;;5.70;;
13660;SDS011;6903;49.480;11.102;2023-05-07T07:49:42;6.07;;;5.53;;
13660;SDS011;6903;49.480;11.102;2023-05-07T07:52:08;8.48;;;5.45;;
13660;SDS011;6903;49.480;11.102;2023-05-07T07:54:33;6.63;;;5.82;;
13660;SDS011;6903;49.480;11.102;2023-05-07T07:56:58;5.68;;;5.18;;
13660;SDS011;6903;49.480;11.102;2023-05-07T07:59:24;6.82;;;5.75;;
13660;SDS011;6903;49.480;11.102;2023-05-07T08:01:50;5.43;;;5.00;;
13660;SDS011;6903;49.480;11.102;2023-05-07T08:04:17;6.35;;;5.75;;
13660;SDS011;6903;49.480;11.102;2023-05-07T08:06:42;6.40;;;5.80;;
13660;SDS011;6903;49.480;11.102;2023-05-07T08:09:07;6.47;;;5.88;;
13660;SDS011;6903;49.480;11.102;2023-05-07T08:11:33;5.43;;;4.90;;
13660;SDS011;6903;49.480;11.102;2023-05-07T08:13:58;6.60;;;5.95;;
13660;SDS011;6903;49.480;11.102;2023-05-07T08:16:23;7.25;;;5.88;;
13660;SDS011;6903;49.480;11.102;2023-05-07T08:18:49;6.97;;;6.38;;
13660;SDS011;6903;49.480;11.102;2023-05-07T08:21:14;6.75;;;6.10;;
13660;SDS011;6903;49.480;11.102;2023-05-07T08:23:40;7.25;;;5.85;;
13660;SDS011;6903;49.480;11.102;2023-05-07T08:26:05;6.55;;;5.88;;
13660;SDS011;6903;49.480;11.102;2023-05-07T08:28:30;6.13;;;5.53;;
13660;SDS011;6903;49.480;11.102;2023-05-07T08:30:55;6.82;;;5.75;;
13660;SDS011;6903;49.480;11.102;2023-05-07T08:33:25;6.80;;;6.05;;
13660;SDS011;6903;49.480;11.102;2023-05-07T08:35:51;7.57;;;5.57;;
13660;SDS011;6903;49.480;11.102;2023-05-07T08:38:16;6.60;;;6.00;;
13660;SDS011;6903;49.480;11.102;2023-05-07T08:40:42;6.10;;;5.57;;
13660;SDS011;6903;49.480;11.102;2023-05-07T08:43:07;6.00;;;5.40;;
13660;SDS011;6903;49.480;11.102;2023-05-07T08:45:33;6.20;;;5.70;;
13660;SDS011;6903;49.480;11.102;2023-05-07T08:48:00;6.82;;;6.00;;
13660;SDS011;6903;49.480;11.102;2023-05-07T08:50:30;5.35;;;4.85;;
13660;SDS011;6903;49.480;11.102;2023-05-07T08:52:55;5.43;;;5.00;;
13660;SDS011;6903;49.480;11.102;2023-05-07T08:55:22;7.95;;;5.90;;
13660;SDS011;6903;49.480;11.102;2023-05-07T08:57:48;6.18;;;5.55;;
13660;SDS011;6903;49.480;11.102;2023-05-07T09:00:14;7.47;;;5.20;;
13660;SDS011;6903;49.480;11.102;2023-05-07T09:02:39;6.40;;;5.80;;
13660;SDS011;6903;49.480;11.102;2023-05-07T09:05:05;7.72;;;5.75;;
13660;SDS011;6903;49.480;11.102;2023-05-07T09:07:31;5.65;;;5.15;;
13660;SDS011;6903;49.480;11.102;2023-05-07T09:09:56;6.30;;;5.20;;
13660;SDS011;6903;49.480;11.102;2023-05-07T09:12:22;5.78;;;5.00;;
13660;SDS011;6903;49.480;11.102;2023-05-07T09:14:48;6.15;;;4.70;;
13660;SDS011;6903;49.480;11.102;2023-05-07T09:17:17;5.90;;;5.40;;
13660;SDS011;6903;49.480;11.102;2023-05-07T09:19:43;6.45;;;4.97;;
13660;SDS011;6903;49.480;11.102;2023-05-07T09:22:12;5.70;;;5.20;;
13660;SDS011;6903;49.480;11.102;2023-05-07T09:24:38;5.90;;;5.15;;
13660;SDS011;6903;49.480;11.102;2023-05-07T09:27:04;5.53;;;5.03;;
13660;SDS011;6903;49.480;11.102;2023-05-07T09:29:30;5.63;;;5.13;;
13660;SDS011;6903;49.480;11.102;2023-05-07T09:32:03;5.60;;;5.10;;
13660;SDS011;6903;49.480;11.102;2023-05-07T09:34:30;5.00;;;4.50;;
13660;SDS011;6903;49.480;11.102;2023-05-07T09:36:58;6.53;;;5.20;;
13660;SDS011;6903;49.480;11.102;2023-05-07T09:39:25;5.75;;;5.22;;
13660;SDS011;6903;49.480;11.102;2023-05-07T09:41:50;5.60;;;5.05;;
13660;SDS011;6903;49.480;11.102;2023-05-07T09:44:19;5.45;;;4.70;;
13660;SDS011;6903;49.480;11.102;2023-05-07T09:46:45;6.72;;;4.90;;
13660;SDS011;6903;49.480;11.102;2023-05-07T09:49:20;6.65;;;5.28;;
13660;SDS011;6903;49.480;11.102;2023-05-07T09:51:48;5.38;;;4.72;;
13660;SDS011;6903;49.480;11.102;2023-05-07T09:54:15;4.70;;;4.28;;
13660;SDS011;6903;49.480;11.102;2023-05-07T09:56:42;6.13;;;5.00;;
13660;SDS011;6903;49.480;11.102;2023-05-07T09:59:08;5.32;;;4.93;;
13660;SDS011;6903;49.480;11.102;2023-05-07T10:01:37;5.40;;;4.70;;
13660;SDS011;6903;49.480;11.102;2023-05-07T10:04:05;4.88;;;4.47;;
13660;SDS011;6903;49.480;11.102;2023-05-07T10:06:33;4.85;;;4.45;;
13660;SDS011;6903;49.480;11.102;2023-05-07T10:08:59;4.80;;;4.30;;
13660;SDS011;6903;49.480;11.102;2023-05-07T10:11:25;5.43;;;4.93;;
13660;SDS011;6903;49.480;11.102;2023-05-07T10:13:52;4.90;;;4.45;;
13660;SDS011;6903;49.480;11.102;2023-05-07T10:16:18;4.85;;;4.43;;
13660;SDS011;6903;49.480;11.102;2023-05-07T10:18:43;4.63;;;4.15;;
13660;SDS011;6903;49.480;11.102;2023-05-07T10:21:11;4.75;;;4.20;;
13660;SDS011;6903;49.480;11.102;2023-05-07T10:23:37;4.88;;;4.47;;
13660;SDS011;6903;49.480;11.102;2023-05-07T10:26:04;5.25;;;4.75;;
13660;SDS011;6903;49.480;11.102;2023-05-07T10:28:34;4.65;;;3.83;;
13660;SDS011;6903;49.480;11.102;2023-05-07T10:33:34;4.60;;;4.10;;
13660;SDS011;6903;49.480;11.102;2023-05-07T10:36:02;4.45;;;4.05;;
13660;SDS011;6903;49.480;11.102;2023-05-07T10:38:29;4.65;;;4.18;;
13660;SDS011;6903;49.480;11.102;2023-05-07T10:40:55;4.82;;;4.43;;
13660;SDS011;6903;49.480;11.102;2023-05-07T10:43:20;4.82;;;4.30;;
13660;SDS011;6903;49.480;11.102;2023-05-07T10:51:29;4.68;;;4.18;;
13660;SDS011;6903;49.480;11.102;2023-05-07T10:54:18;4.18;;;3.80;;
13660;SDS011;6903;49.480;11.102;2023-05-07T10:56:44;3.75;;;3.35;;
13660;SDS011;6903;49.480;11.102;2023-05-07T11:01:55;4.25;;;3.85;;
13660;SDS011;6903;49.480;11.102;2023-05-07T11:04:22;4.60;;;3.78;;
13660;SDS011;6903;49.480;11.102;2023-05-07T11:15:12;3.95;;;3.65;;
13660;SDS011;6903;49.480;11.102;2023-05-07T11:17:56;7.20;;;3.80;;
13660;SDS011;6903;49.480;11.102;2023-05-07T11:26:05;4.05;;;3.70;;
13660;SDS011;6903;49.480;11.102;2023-05-07T11:28:38;3.80;;;3.50;;
13660;SDS011;6903;49.480;11.102;2023-05-07T11:31:04;4.30;;;3.90;;
13660;SDS011;6903;49.480;11.102;2023-05-07T11:33:30;3.90;;;3.60;;
13660;SDS011;6903;49.480;11.102;2023-05-07T11:35:56;8.02;;;4.10;;
13660;SDS011;6903;49.480;11.102;2023-05-07T11:38:22;4.75;;;3.53;;
13660;SDS011;6903;49.480;11.102;2023-05-07T11:40:49;4.28;;;3.88;;
13660;SDS011;6903;49.480;11.102;2023-05-07T11:43:15;3.85;;;3.25;;
13660;SDS011;6903;49.480;11.102;2023-05-07T11:45:41;4.25;;;3.85;;
13660;SDS011;6903;49.480;11.102;2023-05-07T11:48:06;4.15;;;3.80;;
13660;SDS011;6903;49.480;11.102;2023-05-07T11:50:31;4.85;;;3.72;;
13660;SDS011;6903;49.480;11.102;2023-05-07T11:52:56;3.90;;;3.60;;
13660;SDS011;6903;49.480;11.102;2023-05-07T11:55:23;4.07;;;3.67;;
13660;SDS011;6903;49.480;11.102;2023-05-07T11:57:49;3.80;;;3.50;;
13660;SDS011;6903;49.480;11.102;2023-05-07T12:00:15;3.78;;;3.35;;
13660;SDS011;6903;49.480;11.102;2023-05-07T12:02:41;4.65;;;3.40;;
13660;SDS011;6903;49.480;11.102;2023-05-07T12:05:07;3.95;;;3.20;;
13660;SDS011;6903;49.480;11.102;2023-05-07T12:07:33;5.05;;;3.92;;
13660;SDS011;6903;49.480;11.102;2023-05-07T12:09:59;4.15;;;3.75;;
13660;SDS011;6903;49.480;11.102;2023-05-07T12:12:29;4.05;;;3.63;;
13660;SDS011;6903;49.480;11.102;2023-05-07T12:14:55;3.88;;;3.58;;
13660;SDS011;6903;49.480;11.102;2023-05-07T12:17:20;4.07;;;3.67;;
13660;SDS011;6903;49.480;11.102;2023-05-07T12:19:46;4.85;;;3.78;;
13660;SDS011;6903;49.480;11.102;2023-05-07T12:22:12;4.28;;;3.97;;
13660;SDS011;6903;49.480;11.102;2023-05-07T12:24:47;4.50;;;3.90;;
13660;SDS011;6903;49.480;11.102;2023-05-07T12:27:14;3.70;;;3.40;;
13660;SDS011;6903;49.480;11.102;2023-05-07T12:29:44;7.55;;;4.00;;
13660;SDS011;6903;49.480;11.102;2023-05-07T12:32:15;4.65;;;4.15;;
13660;SDS011;6903;49.480;11.102;2023-05-07T12:34:41;4.72;;;4.32;;
13660;SDS011;6903;49.480;11.102;2023-05-07T12:37:07;8.10;;;4.22;;
13660;SDS011;6903;49.480;11.102;2023-05-07T12:39:32;4.70;;;4.30;;
13660;SDS011;6903;49.480;11.102;2023-05-07T12:41:58;10.05;;;6.47;;
13660;SDS011;6903;49.480;11.102;2023-05-07T12:44:34;4.47;;;4.07;;
13660;SDS011;6903;49.480;11.102;2023-05-07T12:47:02;5.82;;;4.07;;
13660;SDS011;6903;49.480;11.102;2023-05-07T12:49:28;5.82;;;3.90;;
13660;SDS011;6903;49.480;11.102;2023-05-07T12:51:53;3.85;;;3.55;;
13660;SDS011;6903;49.480;11.102;2023-05-07T12:54:35;3.88;;;3.50;;
13660;SDS011;6903;49.480;11.102;2023-05-07T12:57:03;4.85;;;3.38;;
13660;SDS011;6903;49.480;11.102;2023-05-07T12:59:31;4.47;;;3.83;;
13660;SDS011;6903;49.480;11.102;2023-05-07T13:02:06;3.17;;;2.97;;
13660;SDS011;6903;49.480;11.102;2023-05-07T13:04:33;3.80;;;3.50;;
13660;SDS011;6903;49.480;11.102;2023-05-07T13:06:59;3.83;;;3.53;;
13660;SDS011;6903;49.480;11.102;2023-05-07T13:09:25;3.55;;;3.25;;
13660;SDS011;6903;49.480;11.102;2023-05-07T13:11:50;3.97;;;3.40;;
13660;SDS011;6903;49.480;11.102;2023-05-07T13:14:16;4.28;;;3.88;;
13660;SDS011;6903;49.480;11.102;2023-05-07T13:16:41;4.15;;;3.33;;
13660;SDS011;6903;49.480;11.102;2023-05-07T13:19:06;4.53;;;3.70;;
13660;SDS011;6903;49.480;11.102;2023-05-07T13:21:32;3.78;;;3.40;;
13660;SDS011;6903;49.480;11.102;2023-05-07T13:23:57;3.13;;;2.92;;
13660;SDS011;6903;49.480;11.102;2023-05-07T13:26:23;3.55;;;3.22;;
13660;SDS011;6903;49.480;11.102;2023-05-07T13:28:49;3.45;;;3.15;;
13660;SDS011;6903;49.480;11.102;2023-05-07T13:31:14;3.45;;;3.15;;
13660;SDS011;6903;49.480;11.102;2023-05-07T13:33:40;3.67;;;3.20;;
13660;SDS011;6903;49.480;11.102;2023-05-07T13:36:05;4.60;;;3.58;;
13660;SDS011;6903;49.480;11.102;2023-05-07T13:38:30;3.50;;;3.20;;
13660;SDS011;6903;49.480;11.102;2023-05-07T13:40:56;3.63;;;3.33;;
13660;SDS011;6903;49.480;11.102;2023-05-07T13:43:21;3.50;;;3.20;;
13660;SDS011;6903;49.480;11.102;2023-05-07T13:45:46;3.67;;;3.33;;
13660;SDS011;6903;49.480;11.102;2023-05-07T13:48:12;3.22;;;2.92;;
13660;SDS011;6903;49.480;11.102;2023-05-07T13:50:37;3.38;;;3.08;;
13660;SDS011;6903;49.480;11.102;2023-05-07T13:53:02;3.70;;;3.20;;
13660;SDS011;6903;49.480;11.102;2023-05-07T13:55:28;3.65;;;3.28;;
13660;SDS011;6903;49.480;11.102;2023-05-07T13:58:01;3.30;;;3.00;;
13660;SDS011;6903;49.480;11.102;2023-05-07T14:00:28;3.85;;;3.10;;
13660;SDS011;6903;49.480;11.102;2023-05-07T14:02:54;3.35;;;3.05;;
13660;SDS011;6903;49.480;11.102;2023-05-07T14:05:20;3.70;;;3.40;;
13660;SDS011;6903;49.480;11.102;2023-05-07T14:07:48;4.25;;;2.95;;
13660;SDS011;6903;49.480;11.102;2023-05-07T14:10:16;4.15;;;3.30;;
13660;SDS011;6903;49.480;11.102;2023-05-07T14:12:43;5.50;;;3.13;;
13660;SDS011;6903;49.480;11.102;2023-05-07T14:15:09;3.67;;;3.00;;
13660;SDS011;6903;49.480;11.102;2023-05-07T14:17:35;3.78;;;3.47;;
13660;SDS011;6903;49.480;11.102;2023-05-07T14:20:00;3.83;;;2.85;;
13660;SDS011;6903;49.480;11.102;2023-05-07T14:22:26;3.58;;;3.28;;
13660;SDS011;6903;49.480;11.102;2023-05-07T14:24:51;3.70;;;3.40;;
13660;SDS011;6903;49.480;11.102;2023-05-07T14:27:16;3.70;;;3.40;;
13660;SDS011;6903;49.480;11.102;2023-05-07T14:29:42;3.67;;;3.33;;
13660;SDS011;6903;49.480;11.102;2023-05-07T14:32:08;3.63;;;3.33;;
13660;SDS011;6903;49.480;11.102;2023-05-07T14:34:33;4.00;;;3.60;;
13660;SDS011;6903;49.480;11.102;2023-05-07T14:36:59;4.32;;;3.80;;
13660;SDS011;6903;49.480;11.102;2023-05-07T14:39:24;3.70;;;3.33;;
13660;SDS011;6903;49.480;11.102;2023-05-07T14:41:50;3.72;;;3.42;;
13660;SDS011;6903;49.480;11.102;2023-05-07T14:44:15;4.85;;;3.90;;
13660;SDS011;6903;49.480;11.102;2023-05-07T14:46:41;5.63;;;3.80;;
13660;SDS011;6903;49.480;11.102;2023-05-07T14:49:06;4.30;;;3.83;;
13660;SDS011;6903;49.480;11.102;2023-05-07T14:51:32;4.47;;;3.95;;
13660;SDS011;6903;49.480;11.102;2023-05-07T14:53:57;4.82;;;3.80;;
13660;SDS011;6903;49.480;11.102;2023-05-07T14:56:23;4.53;;;3.92;;
13660;SDS011;6903;49.480;11.102;2023-05-07T14:58:48;5.40;;;3.95;;
13660;SDS011;6903;49.480;11.102;2023-05-07T15:01:14;4.60;;;3.90;;
13660;SDS011;6903;49.480;11.102;2023-05-07T15:03:39;3.78;;;3.47;;
13660;SDS011;6903;49.480;11.102;2023-05-07T15:06:05;3.90;;;3.53;;